Terminal Aerodrome Forecast
Issued by NWS Central Illinois

Home | Current Version | Previous Version | Text Only | Print | Product List | Glossary On
Versions: 1 2 3 4 5 6 7 8 9 10 11 12 13 14 15 16 17 18 19 20
810
FTUS43 KILX 140101 AAB
TAFPIA
TAF AMD
KPIA 140101Z 1401/1424 30018G35KT P6SM OVC019
     FM140400 32020G30KT P6SM OVC025
     FM140800 33012KT P6SM BKN030
     FM141000 34008KT P6SM BKN080
     FM142100 29004KT P6SM BKN080=

USA.gov is the U.S. government's official web portal to all federal, state and local government web resources and services.